Time;durP1;ratioP1;P1;durP2;ratioP2;P2;SDS_P1;SDS_P2;PMS_P1;PMS_P2;Temp;Humidity;BMP_temperature;BMP_pressure;BME280_temperature;BME280_humidity;BME280_pressure;Samples;Min_cycle;Max_cycle;Signal;HPM_P1;HPM_P2
2021/06/04 00:08:17;;;;;;;20.93;12.23;;;;;;;16.22;90.40;101381.30;714685;1198;115050;-72
2021/06/04 00:23:38;;;;;;;34.18;16.00;;;;;;;15.95;91.55;101387.38;714696;1199;114953;-72
2021/06/04 00:39:00;;;;;;;28.03;13.33;;;;;;;15.67;91.46;101387.27;714676;1200;114679;-73
2021/06/04 00:54:22;;;;;;;23.18;12.88;;;;;;;15.40;92.80;101387.98;714821;1199;115406;-74
2021/06/04 01:10:02;;;;;;;18.83;11.08;;;;;;;15.10;93.83;101379.23;714836;1198;115076;-72
2021/06/04 01:25:40;;;;;;;15.28;9.20;;;;;;;14.89;94.29;101377.53;714701;1198;115010;-71
2021/06/04 01:41:05;;;;;;;21.68;11.35;;;;;;;14.51;93.05;101368.52;714678;1199;115060;-73
2021/06/04 01:56:31;;;;;;;30.25;14.20;;;;;;;14.17;94.46;101362.70;714766;1200;113947;-73
2021/06/04 02:11:53;;;;;;;38.33;17.85;;;;;;;13.84;95.33;101364.63;714544;1198;115781;-73
2021/06/04 02:27:21;;;;;;;23.53;12.30;;;;;;;13.63;96.87;101362.83;714532;1199;115530;-72
2021/06/04 02:43:00;;;;;;;21.17;12.00;;;;;;;13.26;98.01;101356.18;714600;1199;115498;-72
2021/06/04 02:58:20;;;;;;;25.30;11.78;;;;;;;13.12;99.09;101349.40;714770;1202;114025;-73
2021/06/04 03:13:40;;;;;;;17.78;9.53;;;;;;;13.17;98.76;101335.00;714618;1199;114905;-72
2021/06/04 03:29:06;;;;;;;21.63;11.03;;;;;;;13.38;99.71;101342.96;714690;1202;114681;-71
2021/06/04 03:44:29;;;;;;;20.20;11.30;;;;;;;13.64;99.08;101352.15;714680;1199;114209;-72
2021/06/04 03:59:51;;;;;;;17.97;9.43;;;;;;;14.11;98.55;101353.53;714700;1199;113821;-73
2021/06/04 04:15:18;;;;;;;27.67;13.87;;;;;;;14.74;96.93;101353.33;714757;1202;114241;-72
2021/06/04 04:30:39;;;;;;;41.43;24.65;;;;;;;15.36;96.50;101350.44;714872;1199;113985;-71
2021/06/04 04:46:02;;;;;;;36.93;21.53;;;;;;;16.06;94.19;101350.16;714569;1202;115053;-72
2021/06/04 05:17:01;;;;;;;17.83;9.05;;;;;;;17.91;85.61;101346.26;713868;1200;115337;-71
2021/06/04 05:32:22;;;;;;;8.03;5.63;;;;;;;18.73;81.91;101359.86;713764;1200;115241;-72
2021/06/04 05:47:44;;;;;;;9.55;5.33;;;;;;;19.29;77.71;101369.91;713828;1203;115133;-80
2021/06/04 06:03:05;;;;;;;10.20;5.23;;;;;;;19.91;74.16;101392.50;713879;1199;113175;-79
2021/06/04 06:18:26;;;;;;;10.53;6.80;;;;;;;20.60;72.05;101391.91;713656;1199;113769;-76
2021/06/04 06:33:52;;;;;;;11.85;5.73;;;;;;;21.22;70.74;101385.72;713727;1188;114552;-77
2021/06/04 06:49:14;;;;;;;6.20;4.58;;;;;;;21.98;68.07;101376.02;716130;1177;114526;-76
2021/06/04 07:04:35;;;;;;;5.58;4.03;;;;;;;22.28;64.38;101384.84;716925;1200;113676;-76
2021/06/04 07:19:55;;;;;;;7.70;4.13;;;;;;;23.10;62.28;101389.05;714290;1199;113684;-71
2021/06/04 07:35:20;;;;;;;7.48;3.68;;;;;;;24.05;60.77;101386.10;716277;1200;114606;-76
2021/06/04 07:50:43;;;;;;;4.70;3.00;;;;;;;25.18;58.54;101394.70;714640;1203;115046;-75
2021/06/04 08:06:05;;;;;;;5.90;3.20;;;;;;;25.78;56.17;101383.15;714228;1200;113665;-76
2021/06/04 08:21:32;;;;;;;5.50;3.25;;;;;;;26.33;53.98;101383.62;714257;1199;114394;-84
2021/06/04 08:36:53;;;;;;;6.33;3.20;;;;;;;27.12;52.46;101366.38;714294;1191;113611;-86
2021/06/04 08:52:32;;;;;;;8.95;2.60;;;;;;;27.08;50.08;101368.68;715458;1199;113949;-86
2021/06/04 09:07:53;;;;;;;5.60;2.50;;;;;;;27.55;48.22;101360.23;714534;1177;114760;-79
2021/06/04 09:23:18;;;;;;;8.43;3.55;;;;;;;27.83;47.16;101350.81;714529;1200;113875;-81
2021/06/04 09:38:49;;;;;;;3.58;2.50;;;;;;;27.93;46.73;101353.81;714550;1203;114076;-79
2021/06/04 09:54:30;;;;;;;3.33;2.50;;;;;;;28.30;45.36;101352.98;714304;1199;114884;-82
2021/06/04 10:09:50;;;;;;;4.65;2.68;;;;;;;27.10;44.88;101346.95;721097;1203;115216;-88
2021/06/04 10:25:11;;;;;;;4.33;2.38;;;;;;;27.12;45.48;101353.77;727744;1203;115425;-86
2021/06/04 10:40:47;;;;;;;4.00;2.33;;;;;;;28.03;45.14;101340.66;714127;1200;114192;-86
2021/06/04 10:56:12;;;;;;;3.65;2.10;;;;;;;29.20;42.98;101324.21;714305;1199;113663;-80
2021/06/04 11:11:55;;;;;;;3.68;2.83;;;;;;;29.01;42.65;101305.42;714721;1200;113764;-76
2021/06/04 11:27:23;;;;;;;3.23;2.30;;;;;;;28.51;43.12;101301.20;713912;1200;114817;-75
2021/06/04 11:42:49;;;;;;;;;;;;;;;28.91;42.12;101285.46;714160;1202;115172;-75
2021/06/04 11:58:28;;;;;;;3.48;2.23;;;;;;;28.83;42.54;101275.83;713953;1199;100316;-75
2021/06/04 12:13:49;;;;;;;4.15;2.35;;;;;;;29.44;42.16;101260.19;714379;1200;114060;-75
2021/06/04 12:29:31;;;;;;;3.48;2.33;;;;;;;28.58;41.88;101260.61;714426;1199;114348;-72
2021/06/04 12:45:09;;;;;;;6.95;2.70;;;;;;;28.53;42.47;101242.44;714742;1200;115225;-74
2021/06/04 13:00:32;;;;;;;3.63;2.35;;;;;;;28.29;43.04;101236.16;714068;1198;114810;-74
2021/06/04 13:15:54;;;;;;;7.80;2.58;;;;;;;30.51;41.85;101224.63;714031;1200;114711;-75
2021/06/04 13:31:26;;;;;;;4.63;2.50;;;;;;;29.60;41.44;101223.48;714197;1199;113352;-74
2021/06/04 13:47:04;;;;;;;4.55;2.33;;;;;;;28.87;42.19;101206.80;714235;1202;114293;-75
2021/06/04 14:02:30;;;;;;;2.90;2.48;;;;;;;28.18;41.96;101207.30;714124;1202;114996;-76
2021/06/04 14:17:50;;;;;;;7.63;2.97;;;;;;;27.51;43.14;101186.61;714240;1199;114907;-73
2021/06/04 14:33:14;;;;;;;8.30;4.50;;;;;;;27.19;43.81;101192.14;714120;1200;115389;-72
2021/06/04 14:48:36;;;;;;;12.25;5.45;;;;;;;26.72;45.19;101182.67;714129;1200;114220;-72
2021/06/04 15:03:59;;;;;;;6.70;5.07;;;;;;;26.00;46.79;101171.34;714375;1199;114462;-74
2021/06/04 15:19:20;;;;;;;21.55;12.70;;;;;;;25.77;48.58;101172.72;714482;1202;114560;-74
2021/06/04 15:34:40;;;;;;;18.40;10.45;;;;;;;25.60;49.65;101158.96;716710;1199;114918;-75
2021/06/04 15:50:00;;;;;;;13.27;7.30;;;;;;;25.36;50.46;101150.59;714425;1199;115692;-72
2021/06/04 16:05:25;;;;;;;13.30;9.30;;;;;;;24.96;51.61;101137.28;714084;1201;115239;-71
2021/06/04 16:20:46;;;;;;;12.10;4.23;;;;;;;24.75;52.86;101128.44;714075;1200;115762;-72
2021/06/04 16:36:11;;;;;;;20.95;11.43;;;;;;;24.68;53.90;101130.33;714161;1199;115407;-74
2021/06/04 16:51:32;;;;;;;88.08;44.83;;;;;;;24.37;55.94;101123.70;714437;1200;114174;-72
2021/06/04 17:06:53;;;;;;;13.30;9.13;;;;;;;23.23;58.45;101128.78;714457;1202;115422;-72
2021/06/04 17:22:13;;;;;;;20.00;7.88;;;;;;;22.53;60.20;101114.56;714343;1199;113947;-71
2021/06/04 17:37:34;;;;;;;20.68;11.80;;;;;;;22.58;58.30;101107.59;715073;1199;114330;-72
2021/06/04 17:52:55;;;;;;;19.93;11.43;;;;;;;22.80;58.31;101094.14;714629;1200;113832;-72
2021/06/04 18:08:19;;;;;;;27.58;16.10;;;;;;;22.60;61.07;101084.15;714178;1177;114632;-71
2021/06/04 18:23:44;;;;;;;22.67;12.00;;;;;;;22.31;61.83;101077.13;714467;1186;114026;-72
2021/06/04 18:39:06;;;;;;;10.05;6.38;;;;;;;21.84;61.74;101073.22;714901;1200;114541;-72
2021/06/04 18:54:29;;;;;;;21.67;11.47;;;;;;;21.69;63.96;101081.30;715633;1202;115261;-71
2021/06/04 19:09:53;;;;;;;16.30;9.85;;;;;;;21.55;65.29;101081.16;714241;1200;115435;-72
2021/06/04 19:25:15;;;;;;;31.78;18.65;;;;;;;21.39;66.23;101092.86;714124;1200;114880;-71
2021/06/04 19:40:36;;;;;;;69.28;35.40;;;;;;;21.23;66.60;101091.20;714070;1202;115277;-71
2021/06/04 19:55:56;;;;;;;25.63;13.78;;;;;;;20.71;68.32;101084.16;714315;1199;115401;-72
2021/06/04 20:11:20;;;;;;;17.40;10.15;;;;;;;20.42;70.23;101085.74;714271;1184;114571;-70
2021/06/04 20:26:42;;;;;;;22.18;14.25;;;;;;;20.38;72.18;101082.61;714135;1202;114151;-70
2021/06/04 20:42:07;;;;;;;17.85;10.90;;;;;;;20.17;72.40;101077.14;714190;1203;114905;-72
2021/06/04 20:57:28;;;;;;;29.20;15.17;;;;;;;20.03;74.51;101073.41;714343;1202;115286;-72
2021/06/04 21:12:48;;;;;;;66.13;28.85;;;;;;;19.88;77.06;101076.84;716386;1200;114169;-71
2021/06/04 21:28:10;;;;;;;42.63;21.10;;;;;;;19.82;75.80;101069.56;714181;1200;115429;-72
2021/06/04 21:43:38;;;;;;;72.75;31.98;;;;;;;19.57;77.33;101063.55;714130;1199;114778;-72
2021/06/04 21:58:59;;;;;;;31.28;17.25;;;;;;;19.44;79.00;101072.94;714178;1202;115088;-72
2021/06/04 22:14:21;;;;;;;30.83;18.00;;;;;;;19.35;79.22;101063.34;714444;1199;114985;-72
2021/06/04 22:29:41;;;;;;;24.88;11.70;;;;;;;19.19;79.36;101090.84;715199;1200;115427;-72
2021/06/04 22:45:06;;;;;;;23.23;11.67;;;;;;;19.04;79.13;101088.05;714693;1199;115317;-71
2021/06/04 23:00:39;;;;;;;21.60;12.30;;;;;;;18.87;80.71;101092.59;714653;1199;114425;-72
2021/06/04 23:15:59;;;;;;;42.63;18.60;;;;;;;18.52;83.58;101091.16;714472;1199;115373;-71
2021/06/04 23:31:21;;;;;;;9.38;5.70;;;;;;;18.13;87.06;101084.68;714290;1199;115586;-72
2021/06/04 23:46:42;;;;;;;27.33;13.50;;;;;;;17.66;92.87;101083.44;714080;1199;114177;-71
